sensor_id;sensor_type;location;lat;lon;timestamp;temperature;humidity
20574;DHT22;10445;50.216;7.912;2024-03-23T00:53:35;7.10;99.90
20574;DHT22;10445;50.216;7.912;2024-03-23T00:56:03;7.10;99.90
20574;DHT22;10445;50.216;7.912;2024-03-23T00:58:30;7.10;99.90
20574;DHT22;10445;50.216;7.912;2024-03-23T01:00:58;7.10;99.90
20574;DHT22;10445;50.216;7.912;2024-03-23T01:03:24;7.10;99.90
20574;DHT22;10445;50.216;7.912;2024-03-23T01:05:52;7.10;99.90
20574;DHT22;10445;50.216;7.912;2024-03-23T01:08:19;7.10;99.90
20574;DHT22;10445;50.216;7.912;2024-03-23T01:10:55;7.10;99.90
20574;DHT22;10445;50.216;7.912;2024-03-23T01:13:21;7.10;99.90
20574;DHT22;10445;50.216;7.912;2024-03-23T01:15:49;7.10;99.90
20574;DHT22;10445;50.216;7.912;2024-03-23T01:18:16;7.10;99.90
20574;DHT22;10445;50.216;7.912;2024-03-23T01:20:43;7.10;99.90
20574;DHT22;10445;50.216;7.912;2024-03-23T01:23:10;7.10;99.90
20574;DHT22;10445;50.216;7.912;2024-03-23T01:25:38;7.10;99.90
20574;DHT22;10445;50.216;7.912;2024-03-23T01:28:06;7.10;99.90
20574;DHT22;10445;50.216;7.912;2024-03-23T01:30:33;7.20;99.90
20574;DHT22;10445;50.216;7.912;2024-03-23T01:33:00;7.30;99.90
20574;DHT22;10445;50.216;7.912;2024-03-23T01:35:28;7.30;99.90
20574;DHT22;10445;50.216;7.912;2024-03-23T01:37:55;7.30;99.90
20574;DHT22;10445;50.216;7.912;2024-03-23T01:40:22;7.30;99.90
20574;DHT22;10445;50.216;7.912;2024-03-23T01:43:01;7.30;99.90
20574;DHT22;10445;50.216;7.912;2024-03-23T01:45:31;7.30;99.90
20574;DHT22;10445;50.216;7.912;2024-03-23T01:47:58;7.30;99.90
20574;DHT22;10445;50.216;7.912;2024-03-23T01:50:26;7.30;99.90
20574;DHT22;10445;50.216;7.912;2024-03-23T01:52:53;7.40;99.90
20574;DHT22;10445;50.216;7.912;2024-03-23T01:55:21;7.30;99.90
20574;DHT22;10445;50.216;7.912;2024-03-23T01:57:47;7.30;99.90
20574;DHT22;10445;50.216;7.912;2024-03-23T02:00:15;7.30;99.90
20574;DHT22;10445;50.216;7.912;2024-03-23T02:02:44;7.30;99.90
20574;DHT22;10445;50.216;7.912;2024-03-23T02:05:11;7.40;99.90
20574;DHT22;10445;50.216;7.912;2024-03-23T02:07:39;7.40;99.90
20574;DHT22;10445;50.216;7.912;2024-03-23T02:10:07;7.40;99.90
20574;DHT22;10445;50.216;7.912;2024-03-23T02:12:33;7.40;99.90
20574;DHT22;10445;50.216;7.912;2024-03-23T02:15:01;7.40;99.90
20574;DHT22;10445;50.216;7.912;2024-03-23T02:17:28;7.50;99.90
20574;DHT22;10445;50.216;7.912;2024-03-23T02:19:57;7.50;99.90
20574;DHT22;10445;50.216;7.912;2024-03-23T02:22:24;7.50;99.90
20574;DHT22;10445;50.216;7.912;2024-03-23T02:24:52;7.60;99.90
20574;DHT22;10445;50.216;7.912;2024-03-23T02:27:19;7.50;99.90
20574;DHT22;10445;50.216;7.912;2024-03-23T02:29:46;7.50;99.90
20574;DHT22;10445;50.216;7.912;2024-03-23T02:32:12;7.40;99.90
20574;DHT22;10445;50.216;7.912;2024-03-23T02:34:40;7.50;99.90
20574;DHT22;10445;50.216;7.912;2024-03-23T02:37:10;7.50;99.90
20574;DHT22;10445;50.216;7.912;2024-03-23T02:39:38;7.40;99.90
20574;DHT22;10445;50.216;7.912;2024-03-23T02:42:06;7.40;99.90
20574;DHT22;10445;50.216;7.912;2024-03-23T02:44:33;7.40;99.90
20574;DHT22;10445;50.216;7.912;2024-03-23T02:47:00;7.30;99.90
20574;DHT22;10445;50.216;7.912;2024-03-23T02:49:27;7.20;99.90
20574;DHT22;10445;50.216;7.912;2024-03-23T02:51:54;7.10;99.90
20574;DHT22;10445;50.216;7.912;2024-03-23T02:54:21;7.00;99.90
20574;DHT22;10445;50.216;7.912;2024-03-23T02:56:48;6.80;99.90
20574;DHT22;10445;50.216;7.912;2024-03-23T02:59:16;6.80;99.90
20574;DHT22;10445;50.216;7.912;2024-03-23T03:01:43;6.60;99.90
20574;DHT22;10445;50.216;7.912;2024-03-23T03:04:10;6.50;99.90
20574;DHT22;10445;50.216;7.912;2024-03-23T03:06:37;6.20;99.90
20574;DHT22;10445;50.216;7.912;2024-03-23T03:09:04;6.00;99.90
20574;DHT22;10445;50.216;7.912;2024-03-23T03:11:30;5.90;99.90
20574;DHT22;10445;50.216;7.912;2024-03-23T03:13:58;5.90;99.90
20574;DHT22;10445;50.216;7.912;2024-03-23T03:16:27;5.90;99.90
20574;DHT22;10445;50.216;7.912;2024-03-23T03:18:55;5.80;99.90
20574;DHT22;10445;50.216;7.912;2024-03-23T03:21:21;5.80;99.90
20574;DHT22;10445;50.216;7.912;2024-03-23T03:23:49;5.80;99.90
20574;DHT22;10445;50.216;7.912;2024-03-23T03:26:16;5.70;99.90
20574;DHT22;10445;50.216;7.912;2024-03-23T03:28:43;5.70;99.90
20574;DHT22;10445;50.216;7.912;2024-03-23T03:31:14;5.70;99.90
20574;DHT22;10445;50.216;7.912;2024-03-23T03:33:44;5.70;99.90
20574;DHT22;10445;50.216;7.912;2024-03-23T03:36:10;5.70;99.90
20574;DHT22;10445;50.216;7.912;2024-03-23T03:38:37;5.70;99.90
20574;DHT22;10445;50.216;7.912;2024-03-23T03:41:04;5.70;99.90
20574;DHT22;10445;50.216;7.912;2024-03-23T03:43:32;5.70;99.90
20574;DHT22;10445;50.216;7.912;2024-03-23T03:45:59;5.70;99.90
20574;DHT22;10445;50.216;7.912;2024-03-23T03:48:27;5.60;99.90
20574;DHT22;10445;50.216;7.912;2024-03-23T03:50:55;5.60;99.90
20574;DHT22;10445;50.216;7.912;2024-03-23T03:53:22;5.60;99.90
20574;DHT22;10445;50.216;7.912;2024-03-23T03:55:48;5.50;99.90
20574;DHT22;10445;50.216;7.912;2024-03-23T03:58:16;5.50;99.90
20574;DHT22;10445;50.216;7.912;2024-03-23T04:00:42;5.50;99.90
20574;DHT22;10445;50.216;7.912;2024-03-23T04:03:10;5.50;99.90
20574;DHT22;10445;50.216;7.912;2024-03-23T04:05:36;5.50;99.90
20574;DHT22;10445;50.216;7.912;2024-03-23T04:08:07;5.50;99.90
20574;DHT22;10445;50.216;7.912;2024-03-23T04:10:33;5.50;99.90
20574;DHT22;10445;50.216;7.912;2024-03-23T04:13:01;5.50;99.90
20574;DHT22;10445;50.216;7.912;2024-03-23T04:15:30;5.50;99.90
20574;DHT22;10445;50.216;7.912;2024-03-23T04:17:58;5.40;99.90
20574;DHT22;10445;50.216;7.912;2024-03-23T04:20:24;5.30;99.90
20574;DHT22;10445;50.216;7.912;2024-03-23T04:22:52;5.30;99.90
20574;DHT22;10445;50.216;7.912;2024-03-23T04:25:23;5.20;99.90
20574;DHT22;10445;50.216;7.912;2024-03-23T04:27:50;5.20;99.90
20574;DHT22;10445;50.216;7.912;2024-03-23T04:30:17;5.10;99.90
20574;DHT22;10445;50.216;7.912;2024-03-23T04:32:45;5.10;99.90
20574;DHT22;10445;50.216;7.912;2024-03-23T04:35:11;5.10;99.90
20574;DHT22;10445;50.216;7.912;2024-03-23T04:37:39;5.10;99.90
20574;DHT22;10445;50.216;7.912;2024-03-23T04:40:08;5.10;99.90
20574;DHT22;10445;50.216;7.912;2024-03-23T04:42:38;5.20;99.90
20574;DHT22;10445;50.216;7.912;2024-03-23T04:45:06;5.10;99.90
20574;DHT22;10445;50.216;7.912;2024-03-23T04:47:34;5.10;99.90
20574;DHT22;10445;50.216;7.912;2024-03-23T04:50:03;4.90;99.90
20574;DHT22;10445;50.216;7.912;2024-03-23T04:52:31;4.80;99.90
20574;DHT22;10445;50.216;7.912;2024-03-23T04:54:58;4.70;99.90
20574;DHT22;10445;50.216;7.912;2024-03-23T04:57:25;4.70;99.90
20574;DHT22;10445;50.216;7.912;2024-03-23T04:59:53;4.60;99.90
20574;DHT22;10445;50.216;7.912;2024-03-23T05:02:21;4.60;99.90
20574;DHT22;10445;50.216;7.912;2024-03-23T05:04:48;4.50;99.90
20574;DHT22;10445;50.216;7.912;2024-03-23T05:07:14;4.40;99.90
20574;DHT22;10445;50.216;7.912;2024-03-23T05:09:42;4.40;99.90
20574;DHT22;10445;50.216;7.912;2024-03-23T05:12:09;4.30;99.90
20574;DHT22;10445;50.216;7.912;2024-03-23T05:14:36;4.30;99.90
20574;DHT22;10445;50.216;7.912;2024-03-23T05:17:04;4.20;99.90
20574;DHT22;10445;50.216;7.912;2024-03-23T05:19:31;4.20;99.90
20574;DHT22;10445;50.216;7.912;2024-03-23T05:21:58;4.10;99.90
20574;DHT22;10445;50.216;7.912;2024-03-23T05:24:25;4.00;99.90
20574;DHT22;10445;50.216;7.912;2024-03-23T05:26:52;4.00;99.90
20574;DHT22;10445;50.216;7.912;2024-03-23T05:29:19;4.00;99.90
20574;DHT22;10445;50.216;7.912;2024-03-23T05:31:50;4.00;99.90
20574;DHT22;10445;50.216;7.912;2024-03-23T05:34:19;3.90;99.90
20574;DHT22;10445;50.216;7.912;2024-03-23T05:36:46;3.80;99.90
20574;DHT22;10445;50.216;7.912;2024-03-23T05:39:15;3.80;99.90
20574;DHT22;10445;50.216;7.912;2024-03-23T05:41:42;3.80;99.90
20574;DHT22;10445;50.216;7.912;2024-03-23T05:44:10;3.70;99.90
20574;DHT22;10445;50.216;7.912;2024-03-23T05:46:37;3.70;99.90
20574;DHT22;10445;50.216;7.912;2024-03-23T05:49:04;3.70;99.90
20574;DHT22;10445;50.216;7.912;2024-03-23T05:51:32;3.70;99.90
20574;DHT22;10445;50.216;7.912;2024-03-23T05:53:59;3.70;99.90
20574;DHT22;10445;50.216;7.912;2024-03-23T05:56:27;3.70;99.90
20574;DHT22;10445;50.216;7.912;2024-03-23T05:58:54;3.70;99.90
20574;DHT22;10445;50.216;7.912;2024-03-23T06:01:20;3.70;99.90
20574;DHT22;10445;50.216;7.912;2024-03-23T06:03:48;3.70;99.90
20574;DHT22;10445;50.216;7.912;2024-03-23T06:06:14;3.70;99.90
20574;DHT22;10445;50.216;7.912;2024-03-23T06:08:43;3.60;99.90
20574;DHT22;10445;50.216;7.912;2024-03-23T06:11:10;3.60;99.90
20574;DHT22;10445;50.216;7.912;2024-03-23T06:13:37;3.70;99.90
20574;DHT22;10445;50.216;7.912;2024-03-23T06:16:04;3.70;99.90
20574;DHT22;10445;50.216;7.912;2024-03-23T06:18:33;3.70;99.90
20574;DHT22;10445;50.216;7.912;2024-03-23T06:20:59;3.70;99.90
20574;DHT22;10445;50.216;7.912;2024-03-23T06:23:26;3.70;99.90
20574;DHT22;10445;50.216;7.912;2024-03-23T06:25:54;3.60;99.90
20574;DHT22;10445;50.216;7.912;2024-03-23T06:28:22;3.60;99.90
20574;DHT22;10445;50.216;7.912;2024-03-23T06:30:48;3.60;99.90
20574;DHT22;10445;50.216;7.912;2024-03-23T06:33:15;3.70;99.90
20574;DHT22;10445;50.216;7.912;2024-03-23T06:35:42;3.70;99.90
20574;DHT22;10445;50.216;7.912;2024-03-23T06:38:09;3.70;99.90
20574;DHT22;10445;50.216;7.912;2024-03-23T06:40:36;3.70;99.90
20574;DHT22;10445;50.216;7.912;2024-03-23T06:43:05;3.70;99.90
20574;DHT22;10445;50.216;7.912;2024-03-23T06:45:31;3.80;99.90
20574;DHT22;10445;50.216;7.912;2024-03-23T06:47:59;3.80;99.90
20574;DHT22;10445;50.216;7.912;2024-03-23T06:50:25;3.80;99.90
20574;DHT22;10445;50.216;7.912;2024-03-23T06:52:54;3.80;99.90
20574;DHT22;10445;50.216;7.912;2024-03-23T06:55:20;3.80;99.90
20574;DHT22;10445;50.216;7.912;2024-03-23T06:57:48;3.90;99.90
20574;DHT22;10445;50.216;7.912;2024-03-23T07:00:16;4.00;99.90
20574;DHT22;10445;50.216;7.912;2024-03-23T07:02:43;3.90;99.90
20574;DHT22;10445;50.216;7.912;2024-03-23T07:05:10;3.90;99.90
20574;DHT22;10445;50.216;7.912;2024-03-23T07:07:38;3.90;99.90
20574;DHT22;10445;50.216;7.912;2024-03-23T07:10:06;3.90;99.90
20574;DHT22;10445;50.216;7.912;2024-03-23T07:12:33;3.90;99.90
20574;DHT22;10445;50.216;7.912;2024-03-23T07:14:59;4.00;99.90
20574;DHT22;10445;50.216;7.912;2024-03-23T07:17:28;4.00;99.90
20574;DHT22;10445;50.216;7.912;2024-03-23T07:19:55;3.90;99.90
20574;DHT22;10445;50.216;7.912;2024-03-23T07:22:22;3.90;99.90
20574;DHT22;10445;50.216;7.912;2024-03-23T07:24:50;3.90;99.90
20574;DHT22;10445;50.216;7.912;2024-03-23T07:27:18;4.00;99.90
20574;DHT22;10445;50.216;7.912;2024-03-23T07:29:45;4.00;99.90
20574;DHT22;10445;50.216;7.912;2024-03-23T07:32:12;4.00;99.90
20574;DHT22;10445;50.216;7.912;2024-03-23T07:34:40;4.00;99.90
20574;DHT22;10445;50.216;7.912;2024-03-23T07:37:09;4.00;99.90
20574;DHT22;10445;50.216;7.912;2024-03-23T07:39:36;4.00;99.90
20574;DHT22;10445;50.216;7.912;2024-03-23T07:42:03;4.10;99.90
20574;DHT22;10445;50.216;7.912;2024-03-23T07:44:30;4.20;99.90
20574;DHT22;10445;50.216;7.912;2024-03-23T07:46:58;4.50;99.90
20574;DHT22;10445;50.216;7.912;2024-03-23T07:49:24;5.00;99.90
20574;DHT22;10445;50.216;7.912;2024-03-23T07:51:53;5.40;96.90
20574;DHT22;10445;50.216;7.912;2024-03-23T07:54:20;5.50;90.40
20574;DHT22;10445;50.216;7.912;2024-03-23T07:56:47;5.60;87.10
20574;DHT22;10445;50.216;7.912;2024-03-23T07:59:13;5.70;86.00
20574;DHT22;10445;50.216;7.912;2024-03-23T08:01:41;5.50;85.30
20574;DHT22;10445;50.216;7.912;2024-03-23T08:04:07;5.60;86.00
20574;DHT22;10445;50.216;7.912;2024-03-23T08:06:35;5.70;87.20
20574;DHT22;10445;50.216;7.912;2024-03-23T08:09:02;5.90;88.30
20574;DHT22;10445;50.216;7.912;2024-03-23T08:11:31;6.00;80.00
20574;DHT22;10445;50.216;7.912;2024-03-23T08:13:58;6.10;80.90
20574;DHT22;10445;50.216;7.912;2024-03-23T08:16:25;6.20;81.10
20574;DHT22;10445;50.216;7.912;2024-03-23T08:18:52;6.30;79.40
20574;DHT22;10445;50.216;7.912;2024-03-23T08:21:19;6.30;78.10
20574;DHT22;10445;50.216;7.912;2024-03-23T08:23:45;6.30;80.00
20574;DHT22;10445;50.216;7.912;2024-03-23T08:26:16;6.30;78.80
20574;DHT22;10445;50.216;7.912;2024-03-23T08:28:43;6.20;77.70
20574;DHT22;10445;50.216;7.912;2024-03-23T08:31:12;6.10;80.20
20574;DHT22;10445;50.216;7.912;2024-03-23T08:33:39;6.10;79.60
20574;DHT22;10445;50.216;7.912;2024-03-23T08:36:09;6.00;76.10
20574;DHT22;10445;50.216;7.912;2024-03-23T08:38:38;6.50;78.30
20574;DHT22;10445;50.216;7.912;2024-03-23T08:41:06;7.30;64.90
20574;DHT22;10445;50.216;7.912;2024-03-23T08:43:36;8.20;51.90
20574;DHT22;10445;50.216;7.912;2024-03-23T08:46:04;8.90;41.10
20574;DHT22;10445;50.216;7.912;2024-03-23T08:48:31;8.30;23.80
20574;DHT22;10445;50.216;7.912;2024-03-23T08:51:01;7.90;39.10
20574;DHT22;10445;50.216;7.912;2024-03-23T08:53:28;8.00;40.30
20574;DHT22;10445;50.216;7.912;2024-03-23T08:55:56;8.00;37.60
20574;DHT22;10445;50.216;7.912;2024-03-23T08:58:24;7.70;26.70
20574;DHT22;10445;50.216;7.912;2024-03-23T09:00:54;7.30;37.50
20574;DHT22;10445;50.216;7.912;2024-03-23T09:03:22;7.00;43.70
20574;DHT22;10445;50.216;7.912;2024-03-23T09:05:50;6.90;45.20
20574;DHT22;10445;50.216;7.912;2024-03-23T09:08:16;6.80;36.60
20574;DHT22;10445;50.216;7.912;2024-03-23T09:10:44;6.70;44.20
20574;DHT22;10445;50.216;7.912;2024-03-23T09:13:10;6.90;50.30
20574;DHT22;10445;50.216;7.912;2024-03-23T09:15:45;7.30;45.00
20574;DHT22;10445;50.216;7.912;2024-03-23T09:18:13;7.40;35.00
20574;DHT22;10445;50.216;7.912;2024-03-23T09:20:41;7.30;32.70
20574;DHT22;10445;50.216;7.912;2024-03-23T09:23:07;7.80;18.60
20574;DHT22;10445;50.216;7.912;2024-03-23T09:25:36;8.20;12.70
20574;DHT22;10445;50.216;7.912;2024-03-23T09:28:04;8.00;9.20
20574;DHT22;10445;50.216;7.912;2024-03-23T09:30:32;8.30;9.30
20574;DHT22;10445;50.216;7.912;2024-03-23T09:32:59;8.50;6.30
20574;DHT22;10445;50.216;7.912;2024-03-23T09:35:28;8.50;3.00
20574;DHT22;10445;50.216;7.912;2024-03-23T09:37:54;8.40;8.00
20574;DHT22;10445;50.216;7.912;2024-03-23T09:40:23;8.30;1.00
20574;DHT22;10445;50.216;7.912;2024-03-23T09:42:52;8.90;1.00
20574;DHT22;10445;50.216;7.912;2024-03-23T09:45:23;10.00;1.00
20574;DHT22;10445;50.216;7.912;2024-03-23T09:47:52;10.80;1.00
20574;DHT22;10445;50.216;7.912;2024-03-23T09:50:20;11.20;1.00
20574;DHT22;10445;50.216;7.912;2024-03-23T09:52:48;11.30;1.00
20574;DHT22;10445;50.216;7.912;2024-03-23T09:55:17;10.10;1.00
20574;DHT22;10445;50.216;7.912;2024-03-23T09:57:43;8.60;1.00
20574;DHT22;10445;50.216;7.912;2024-03-23T10:00:12;7.90;1.00
20574;DHT22;10445;50.216;7.912;2024-03-23T10:02:39;7.30;1.00
20574;DHT22;10445;50.216;7.912;2024-03-23T10:05:20;7.20;1.00
20574;DHT22;10445;50.216;7.912;2024-03-23T10:07:49;7.20;1.00
20574;DHT22;10445;50.216;7.912;2024-03-23T10:10:17;7.40;1.00
20574;DHT22;10445;50.216;7.912;2024-03-23T10:12:47;7.40;1.00
20574;DHT22;10445;50.216;7.912;2024-03-23T10:15:21;7.30;1.00
20574;DHT22;10445;50.216;7.912;2024-03-23T10:17:48;7.10;1.00
20574;DHT22;10445;50.216;7.912;2024-03-23T10:20:20;7.00;1.00
20574;DHT22;10445;50.216;7.912;2024-03-23T10:22:50;6.90;1.00
20574;DHT22;10445;50.216;7.912;2024-03-23T10:25:18;6.90;1.00
20574;DHT22;10445;50.216;7.912;2024-03-23T10:27:58;6.90;1.00
20574;DHT22;10445;50.216;7.912;2024-03-23T10:30:26;7.00;1.70
20574;DHT22;10445;50.216;7.912;2024-03-23T10:33:07;7.10;1.00
20574;DHT22;10445;50.216;7.912;2024-03-23T10:35:34;7.40;3.90
20574;DHT22;10445;50.216;7.912;2024-03-23T10:38:04;7.60;5.20
20574;DHT22;10445;50.216;7.912;2024-03-23T10:40:34;7.90;1.00
20574;DHT22;10445;50.216;7.912;2024-03-23T10:43:00;7.80;1.00
20574;DHT22;10445;50.216;7.912;2024-03-23T10:45:30;7.70;1.00
20574;DHT22;10445;50.216;7.912;2024-03-23T10:47:56;8.00;2.40
20574;DHT22;10445;50.216;7.912;2024-03-23T10:50:24;8.30;1.00
20574;DHT22;10445;50.216;7.912;2024-03-23T10:52:52;8.20;1.00
20574;DHT22;10445;50.216;7.912;2024-03-23T10:55:24;8.00;1.00
20574;DHT22;10445;50.216;7.912;2024-03-23T10:57:52;8.00;1.00
20574;DHT22;10445;50.216;7.912;2024-03-23T11:00:21;8.10;1.00
20574;DHT22;10445;50.216;7.912;2024-03-23T11:02:49;8.20;1.70
20574;DHT22;10445;50.216;7.912;2024-03-23T11:05:29;8.30;1.00
20574;DHT22;10445;50.216;7.912;2024-03-23T11:07:56;8.20;1.00
20574;DHT22;10445;50.216;7.912;2024-03-23T11:10:29;8.30;1.00
20574;DHT22;10445;50.216;7.912;2024-03-23T11:12:56;8.40;1.00
20574;DHT22;10445;50.216;7.912;2024-03-23T11:15:24;8.40;1.00
20574;DHT22;10445;50.216;7.912;2024-03-23T11:18:03;8.40;1.00
20574;DHT22;10445;50.216;7.912;2024-03-23T11:20:34;8.10;1.00
20574;DHT22;10445;50.216;7.912;2024-03-23T11:23:01;7.90;1.00
20574;DHT22;10445;50.216;7.912;2024-03-23T11:25:30;8.00;1.00
20574;DHT22;10445;50.216;7.912;2024-03-23T11:27:57;8.20;1.00
20574;DHT22;10445;50.216;7.912;2024-03-23T11:30:26;8.40;1.00
20574;DHT22;10445;50.216;7.912;2024-03-23T11:32:56;8.90;1.00
20574;DHT22;10445;50.216;7.912;2024-03-23T11:35:27;9.20;1.00
20574;DHT22;10445;50.216;7.912;2024-03-23T11:38:07;9.00;1.00
20574;DHT22;10445;50.216;7.912;2024-03-23T11:40:38;8.70;1.00
20574;DHT22;10445;50.216;7.912;2024-03-23T11:43:05;8.70;1.00
20574;DHT22;10445;50.216;7.912;2024-03-23T11:45:37;8.60;1.00
20574;DHT22;10445;50.216;7.912;2024-03-23T11:48:08;8.50;1.00
20574;DHT22;10445;50.216;7.912;2024-03-23T11:50:38;8.60;1.00
20574;DHT22;10445;50.216;7.912;2024-03-23T11:53:08;8.70;1.00
20574;DHT22;10445;50.216;7.912;2024-03-23T11:55:42;9.30;1.00
20574;DHT22;10445;50.216;7.912;2024-03-23T11:58:08;9.40;1.00
20574;DHT22;10445;50.216;7.912;2024-03-23T12:00:38;9.70;1.00
20574;DHT22;10445;50.216;7.912;2024-03-23T12:03:06;9.70;1.00
20574;DHT22;10445;50.216;7.912;2024-03-23T12:05:34;9.30;1.00
20574;DHT22;10445;50.216;7.912;2024-03-23T12:08:17;9.00;1.00
20574;DHT22;10445;50.216;7.912;2024-03-23T12:10:48;8.90;1.00
20574;DHT22;10445;50.216;7.912;2024-03-23T12:13:19;8.90;1.00
20574;DHT22;10445;50.216;7.912;2024-03-23T12:15:49;8.80;1.00
20574;DHT22;10445;50.216;7.912;2024-03-23T12:18:16;8.60;1.00
20574;DHT22;10445;50.216;7.912;2024-03-23T12:20:44;8.20;1.00
20574;DHT22;10445;50.216;7.912;2024-03-23T12:23:11;7.80;1.00
20574;DHT22;10445;50.216;7.912;2024-03-23T12:25:42;7.30;1.00
20574;DHT22;10445;50.216;7.912;2024-03-23T12:28:10;6.80;1.00
20574;DHT22;10445;50.216;7.912;2024-03-23T12:30:39;5.90;35.00
20574;DHT22;10445;50.216;7.912;2024-03-23T12:33:06;5.00;54.50
20574;DHT22;10445;50.216;7.912;2024-03-23T12:35:33;4.60;68.70
20574;DHT22;10445;50.216;7.912;2024-03-23T12:38:00;4.50;77.70
20574;DHT22;10445;50.216;7.912;2024-03-23T12:40:27;4.40;79.60
20574;DHT22;10445;50.216;7.912;2024-03-23T12:42:54;4.30;85.00
20574;DHT22;10445;50.216;7.912;2024-03-23T12:45:23;3.80;79.60
20574;DHT22;10445;50.216;7.912;2024-03-23T12:47:49;3.40;81.30
20574;DHT22;10445;50.216;7.912;2024-03-23T12:50:18;2.90;86.00
20574;DHT22;10445;50.216;7.912;2024-03-23T12:52:45;2.80;91.70
20574;DHT22;10445;50.216;7.912;2024-03-23T12:55:12;3.00;97.10
20574;DHT22;10445;50.216;7.912;2024-03-23T12:57:38;3.20;99.90
20574;DHT22;10445;50.216;7.912;2024-03-23T13:00:07;3.50;99.90
20574;DHT22;10445;50.216;7.912;2024-03-23T13:02:37;3.70;99.90
20574;DHT22;10445;50.216;7.912;2024-03-23T13:05:06;4.00;99.90
20574;DHT22;10445;50.216;7.912;2024-03-23T13:07:34;4.40;98.80
20574;DHT22;10445;50.216;7.912;2024-03-23T13:10:04;4.80;95.70
20574;DHT22;10445;50.216;7.912;2024-03-23T13:12:31;5.30;92.20
20574;DHT22;10445;50.216;7.912;2024-03-23T13:14:59;5.50;86.10
20574;DHT22;10445;50.216;7.912;2024-03-23T13:17:25;5.60;83.00
20574;DHT22;10445;50.216;7.912;2024-03-23T13:19:55;5.50;83.30
20574;DHT22;10445;50.216;7.912;2024-03-23T13:22:22;5.40;85.90
20574;DHT22;10445;50.216;7.912;2024-03-23T13:24:49;5.20;80.30
20574;DHT22;10445;50.216;7.912;2024-03-23T13:27:16;4.90;74.30
20574;DHT22;10445;50.216;7.912;2024-03-23T13:29:44;4.80;74.20
20574;DHT22;10445;50.216;7.912;2024-03-23T13:32:12;5.20;79.60
20574;DHT22;10445;50.216;7.912;2024-03-23T13:34:40;5.50;72.80
20574;DHT22;10445;50.216;7.912;2024-03-23T13:37:08;5.40;67.50
20574;DHT22;10445;50.216;7.912;2024-03-23T13:39:36;5.50;66.10
20574;DHT22;10445;50.216;7.912;2024-03-23T13:42:02;6.20;70.10
20574;DHT22;10445;50.216;7.912;2024-03-23T13:44:30;6.80;59.80
20574;DHT22;10445;50.216;7.912;2024-03-23T13:46:57;7.00;49.00
20574;DHT22;10445;50.216;7.912;2024-03-23T13:49:26;7.10;43.10
20574;DHT22;10445;50.216;7.912;2024-03-23T13:51:54;7.20;47.00
20574;DHT22;10445;50.216;7.912;2024-03-23T13:54:23;7.30;46.70
20574;DHT22;10445;50.216;7.912;2024-03-23T13:56:50;7.40;46.80
20574;DHT22;10445;50.216;7.912;2024-03-23T13:59:18;7.80;43.00
20574;DHT22;10445;50.216;7.912;2024-03-23T14:01:44;8.30;32.90
20574;DHT22;10445;50.216;7.912;2024-03-23T14:04:12;8.90;20.40
20574;DHT22;10445;50.216;7.912;2024-03-23T14:06:39;9.20;18.40
20574;DHT22;10445;50.216;7.912;2024-03-23T14:09:07;9.50;7.90
20574;DHT22;10445;50.216;7.912;2024-03-23T14:11:36;10.20;1.00
20574;DHT22;10445;50.216;7.912;2024-03-23T14:14:04;10.80;1.00
20574;DHT22;10445;50.216;7.912;2024-03-23T14:16:31;10.20;1.00
20574;DHT22;10445;50.216;7.912;2024-03-23T14:18:59;9.90;1.00
20574;DHT22;10445;50.216;7.912;2024-03-23T14:21:25;10.40;1.00
20574;DHT22;10445;50.216;7.912;2024-03-23T14:23:53;11.00;1.00
20574;DHT22;10445;50.216;7.912;2024-03-23T14:26:20;10.90;1.00
20574;DHT22;10445;50.216;7.912;2024-03-23T14:28:49;10.00;1.00
20574;DHT22;10445;50.216;7.912;2024-03-23T14:31:16;9.00;1.00
20574;DHT22;10445;50.216;7.912;2024-03-23T14:33:44;8.10;1.00
20574;DHT22;10445;50.216;7.912;2024-03-23T14:36:12;7.40;1.00
20574;DHT22;10445;50.216;7.912;2024-03-23T14:38:39;6.90;1.00
20574;DHT22;10445;50.216;7.912;2024-03-23T14:41:06;6.60;3.80
20574;DHT22;10445;50.216;7.912;2024-03-23T14:43:34;6.40;14.70
20574;DHT22;10445;50.216;7.912;2024-03-23T14:46:09;6.00;13.00
20574;DHT22;10445;50.216;7.912;2024-03-23T14:48:36;5.60;11.20
20574;DHT22;10445;50.216;7.912;2024-03-23T14:51:04;5.20;27.30
20574;DHT22;10445;50.216;7.912;2024-03-23T14:53:32;4.90;29.90
20574;DHT22;10445;50.216;7.912;2024-03-23T14:55:59;4.50;29.50
20574;DHT22;10445;50.216;7.912;2024-03-23T14:58:27;4.30;37.60
20574;DHT22;10445;50.216;7.912;2024-03-23T15:01:00;4.20;38.00
20574;DHT22;10445;50.216;7.912;2024-03-23T15:03:29;4.20;40.10
20574;DHT22;10445;50.216;7.912;2024-03-23T15:05:56;4.20;35.90
20574;DHT22;10445;50.216;7.912;2024-03-23T15:08:24;4.20;38.50
20574;DHT22;10445;50.216;7.912;2024-03-23T15:10:50;4.20;36.60
20574;DHT22;10445;50.216;7.912;2024-03-23T15:13:18;4.20;40.40
20574;DHT22;10445;50.216;7.912;2024-03-23T15:15:44;4.20;42.80
20574;DHT22;10445;50.216;7.912;2024-03-23T15:18:15;4.20;49.10
20574;DHT22;10445;50.216;7.912;2024-03-23T15:20:52;4.30;53.00
20574;DHT22;10445;50.216;7.912;2024-03-23T15:23:20;4.30;55.10
20574;DHT22;10445;50.216;7.912;2024-03-23T15:25:53;4.40;67.00
20574;DHT22;10445;50.216;7.912;2024-03-23T15:28:20;4.60;72.20
20574;DHT22;10445;50.216;7.912;2024-03-23T15:30:47;4.60;74.00
20574;DHT22;10445;50.216;7.912;2024-03-23T15:33:14;4.60;79.50
20574;DHT22;10445;50.216;7.912;2024-03-23T15:35:42;4.60;78.00
20574;DHT22;10445;50.216;7.912;2024-03-23T15:38:10;4.70;81.90
20574;DHT22;10445;50.216;7.912;2024-03-23T15:40:36;4.80;77.70
20574;DHT22;10445;50.216;7.912;2024-03-23T15:43:04;4.80;76.40
20574;DHT22;10445;50.216;7.912;2024-03-23T15:45:30;4.70;72.40
20574;DHT22;10445;50.216;7.912;2024-03-23T15:47:58;4.70;76.70
20574;DHT22;10445;50.216;7.912;2024-03-23T15:50:25;4.70;77.00
20574;DHT22;10445;50.216;7.912;2024-03-23T15:52:53;4.80;75.50
20574;DHT22;10445;50.216;7.912;2024-03-23T15:55:21;4.80;74.10
20574;DHT22;10445;50.216;7.912;2024-03-23T15:57:49;4.70;72.50
20574;DHT22;10445;50.216;7.912;2024-03-23T16:00:16;4.70;72.30
20574;DHT22;10445;50.216;7.912;2024-03-23T16:02:44;4.70;72.20
20574;DHT22;10445;50.216;7.912;2024-03-23T16:05:12;4.70;69.60
20574;DHT22;10445;50.216;7.912;2024-03-23T16:07:39;4.60;66.50
20574;DHT22;10445;50.216;7.912;2024-03-23T16:10:08;4.70;59.10
20574;DHT22;10445;50.216;7.912;2024-03-23T16:12:36;4.70;61.20
20574;DHT22;10445;50.216;7.912;2024-03-23T16:15:03;4.80;65.50
20574;DHT22;10445;50.216;7.912;2024-03-23T16:17:31;4.80;63.60
20574;DHT22;10445;50.216;7.912;2024-03-23T16:20:02;4.90;63.20
20574;DHT22;10445;50.216;7.912;2024-03-23T16:22:29;4.90;65.00
20574;DHT22;10445;50.216;7.912;2024-03-23T16:24:56;5.00;65.50
20574;DHT22;10445;50.216;7.912;2024-03-23T16:27:24;5.00;64.90
20574;DHT22;10445;50.216;7.912;2024-03-23T16:29:51;5.10;69.40
20574;DHT22;10445;50.216;7.912;2024-03-23T16:32:18;5.10;71.40
20574;DHT22;10445;50.216;7.912;2024-03-23T16:34:45;5.00;72.90
20574;DHT22;10445;50.216;7.912;2024-03-23T16:37:12;4.90;73.70
20574;DHT22;10445;50.216;7.912;2024-03-23T16:39:39;4.80;73.90
20574;DHT22;10445;50.216;7.912;2024-03-23T16:42:06;4.80;72.60
20574;DHT22;10445;50.216;7.912;2024-03-23T16:44:34;4.80;73.20
20574;DHT22;10445;50.216;7.912;2024-03-23T16:47:01;4.20;58.60